ADDS TAF Board (Experimental) INFO Settings

IDs: Format: Expanded Condensed

KMEM - Memphis Intl, TN, US

Issued at 1130 UTC 27 Apr 2015
Updated at: 1203 UTC 27 Apr 2015
Time1154Z 27/13Z 27/14Z 27/15Z 27/16Z 27/17Z 27/18Z 27/19Z 27/20Z 27/21Z 27/22Z 27/23Z 28/00Z 28/01Z
Type OBS PRVL PRVL PRVL PRVL PRVL PRVL PRVL PRVL PRVL PRVL PRVL PRVL PRVL
VIS 10 >6 >6 >6 >6 >6 >6 >6 >6 >6 >6 >6 >6 >6
CIG 190 200 120 120 120 120 120 120 120 120 120 120 150 150
Cover OVC OVC OVC OVC OVC OVC OVC OVC OVC OVC OVC OVC OVC OVC
FltCat VFR VFR VFR VFR VFR VFR VFR VFR VFR VFR VFR VFR VFR VFR
WX -- -- -- -- -- -- -- -- -- -- -- -- -- --
WDir 40 60 60 60 60 60 60 60 60 60 60 60 50 50
WSpd 8 10 13 13 13 13 13 13 13 13 13 13 10 10
WGst -- -- 18 18 18 18 18 18 18 18 18 18 -- --
R09/27
XWnd 6 5 7 7 7 7 7 7 7 7 7 7 7 7
XGst -- -- 10 10 10 10 10 10 10 10 10 10 -- --
HWnd 5 8 11 11 11 11 11 11 11 11 11 11 7 7
HGst -- -- 15 15 15 15 15 15 15 15 15 15 -- --
R18/36
XWnd 5 9 11 11 11 11 11 11 11 11 11 11 8 8
XGst -- -- 16 16 16 16 16 16 16 16 16 16 -- --
HWnd -6 -5 -6 -6 -6 -6 -6 -6 -6 -6 -6 -6 -6 -6
HGst -- -- -9 -9 -9 -9 -9 -9 -9 -9 -9 -9 -- --

NOTE: TEMPO conditions in [brackets]. Keep in mind TEMPO conditions might be better (lower impact) than prevailing conditions.

Raw TAF
KMEM 271130Z 2712/2812 06010KT P6SM OVC200
  FM271400 06013G18KT P6SM BKN120 OVC200
  FM280000 05010KT P6SM SCT100 OVC150
  FM281000 06012KT P6SM OVC100


Raw METAR
KMEM 271154Z 04008KT 10SM OVC190 11/06 A2998 RMK AO2 SLP152 T01110056 10128 20106 51029
KMEM 271054Z 01003KT 10SM SCT200 OVC250 11/06 A2997 RMK AO2 SLP147 T01110056
KMEM 270954Z 06008KT 10SM BKN200 12/06 A2995 RMK AO2 SLP141 T01170056

METAR Board
Radar Display
Forecast Discussion

TAF Board Legend

Potential Impact
Threat None Slight Moderate High
Visibility (sm) ≥5.1 5.1>X≥3 3>X≥1 <1
Ceiling (100 ft) ≥30.1 30.1>X≥10 10>X≥5 <5
Wind Speed (kt) <10 10≤X<20 20≤X<30 ≥30
Wind Gust (kt) <15 15≤X<25 25≤X<35 ≥35
Weather No Wx Reported VCTS,-TS,-FZRA,SN TS,FZRA +TS,+FZRA,+SN